KFRH/FRH METAR and TAF weather

Enter ICAO airport designator
Station Type Date Time Source
KFRH METAR 2019/05/25 15:15 UTC NOAA

KFRH 251515Z AUTO 19007KT 10SM CLR 27/18 A3007 RMK AO1


Station Type Date Time Source
KFRH Decoded METAR 2019/05/25 15:15 UTC NOAA

Station name not available
May 25, 2019 - 11:15 AM EDT / 2019.05.25 1515 UTC
Wind: from the S (190 degrees) at 8 MPH (7 KT):0
Visibility: 10 mile(s):0
Sky conditions: clear
Temperature: 80 F (27 C)
Dew Point: 64 F (18 C)
Relative Humidity: 57%
Pressure (altimeter): 30.07 in. Hg (1018 hPa)
ob: KFRH 251515Z AUTO 19007KT 10SM CLR 27/18 A3007 RMK AO1
cycle: 15

Station Type Date Time Source
KFRH TAF UTC NOAA

Error!

Example: see airport list